createdAt,value
2019-04-27T00:00:55.296Z,19.43
2019-04-27T00:01:54.528Z,20.70
2019-04-27T00:02:48.737Z,20.37
2019-04-27T00:03:41.194Z,19.07
2019-04-27T00:04:26.919Z,19.30
2019-04-27T00:05:32.062Z,19.80
2019-04-27T00:06:10.729Z,19.25
2019-04-27T00:06:47.936Z,19.80
2019-04-27T00:07:40.520Z,21.90
2019-04-27T00:08:48.945Z,19.50
2019-04-27T00:09:31.881Z,19.17
2019-04-27T00:10:20.429Z,19.90
2019-04-27T00:11:13.846Z,20.23
2019-04-27T00:12:05.698Z,21.43
2019-04-27T00:12:43.139Z,22.00
2019-04-27T00:13:22.971Z,20.82
2019-04-27T00:14:00.693Z,22.30
2019-04-27T00:14:38.750Z,21.10
2019-04-27T00:15:31.344Z,23.97
2019-04-27T00:16:35.706Z,21.97
2019-04-27T00:17:45.888Z,21.77
2019-04-27T00:18:31.341Z,21.63
2019-04-27T00:19:35.394Z,22.55
2019-04-27T00:20:43.475Z,22.57
2019-04-27T00:21:26.585Z,21.63
2019-04-27T00:22:10.433Z,22.17
2019-04-27T00:22:53.493Z,21.87
2019-04-27T00:23:30.825Z,21.10
2019-04-27T00:24:08.715Z,24.50
2019-04-27T00:24:46.239Z,23.13
2019-04-27T00:25:23.458Z,22.63
2019-04-27T00:26:03.041Z,23.07
2019-04-27T00:26:40.881Z,22.80
2019-04-27T00:27:18.585Z,24.60
2019-04-27T00:27:57.587Z,23.93
2019-04-27T00:28:35.344Z,22.90
2019-04-27T00:29:13.694Z,22.33
2019-04-27T00:29:54.145Z,23.70
2019-04-27T00:30:40.288Z,23.40
2019-04-27T00:31:17.649Z,23.00
2019-04-27T00:31:55.801Z,23.40
2019-04-27T00:32:33.695Z,22.77
2019-04-27T00:33:10.680Z,24.27
2019-04-27T00:33:48.495Z,24.75
2019-04-27T00:34:25.953Z,23.00
2019-04-27T00:35:03.868Z,24.05
2019-04-27T00:35:47.182Z,24.50
2019-04-27T00:36:35.094Z,24.15
2019-04-27T00:37:34.003Z,24.20
2019-04-27T00:38:20.256Z,24.02
2019-04-27T00:39:14.807Z,24.70
2019-04-27T00:40:03.369Z,22.37
2019-04-27T00:40:49.062Z,23.40
2019-04-27T00:41:26.580Z,23.45
2019-04-27T00:42:04.863Z,23.50
2019-04-27T00:42:43.979Z,23.32
2019-04-27T00:43:22.546Z,23.93
2019-04-27T00:43:59.925Z,24.87
2019-04-27T00:44:37.521Z,24.20
2019-04-27T00:45:15.468Z,24.53
2019-04-27T00:45:54.510Z,25.07
2019-04-27T00:46:33.071Z,22.83
2019-04-27T00:47:10.711Z,24.37
2019-04-27T00:47:57.430Z,24.90
2019-04-27T00:48:27.257Z,25.00
2019-04-27T00:49:04.731Z,24.47
2019-04-27T00:49:41.824Z,23.93
2019-04-27T00:50:18.805Z,22.93
2019-04-27T00:50:56.297Z,23.90
2019-04-27T00:51:33.379Z,23.53
2019-04-27T00:52:10.331Z,22.60
2019-04-27T00:52:47.733Z,25.13
2019-04-27T00:53:33.511Z,24.23
2019-04-27T00:54:13.594Z,22.77
2019-04-27T00:54:51.025Z,24.77
2019-04-27T00:55:29.011Z,24.50
2019-04-27T00:56:23.624Z,23.40
2019-04-27T00:57:24.528Z,23.97
2019-04-27T00:58:16.729Z,23.37
2019-04-27T00:59:23.408Z,22.80
2019-04-27T01:00:19.640Z,22.80
2019-04-27T01:01:23.366Z,22.03
2019-04-27T01:02:10.990Z,22.70
2019-04-27T01:02:54.927Z,22.47
2019-04-27T01:03:47.144Z,24.50
2019-04-27T01:04:26.388Z,21.10
2019-04-27T01:05:23.705Z,23.57
2019-04-27T01:05:59.932Z,21.30
2019-04-27T01:06:37.515Z,23.87
2019-04-27T01:07:15.045Z,21.73
2019-04-27T01:07:53.704Z,22.83
2019-04-27T01:08:31.641Z,23.20
2019-04-27T01:09:13.385Z,22.20
2019-04-27T01:09:52.729Z,22.80
2019-04-27T01:10:30.451Z,22.50
2019-04-27T01:11:08.549Z,23.17
2019-04-27T01:11:46.261Z,22.40
2019-04-27T01:12:23.795Z,21.97
2019-04-27T01:13:00.665Z,23.17
2019-04-27T01:13:38.125Z,22.07
2019-04-27T01:14:16.145Z,22.00
2019-04-27T01:14:53.748Z,22.93
2019-04-27T01:15:34.146Z,22.43
2019-04-27T01:16:14.669Z,22.20
2019-04-27T01:16:53.437Z,21.90
2019-04-27T01:17:30.582Z,20.93
2019-04-27T01:18:13.293Z,21.07
2019-04-27T01:18:46.653Z,21.20
2019-04-27T01:19:23.880Z,21.00
2019-04-27T01:20:01.314Z,21.43
2019-04-27T01:20:38.791Z,21.23
2019-04-27T01:21:16.287Z,23.38
2019-04-27T01:21:53.805Z,21.12
2019-04-27T01:22:31.346Z,21.97
2019-04-27T01:23:10.605Z,20.90
2019-04-27T01:23:48.770Z,21.50
2019-04-27T01:24:28.704Z,21.03
2019-04-27T01:25:08.671Z,21.70
2019-04-27T01:26:04.626Z,21.43
2019-04-27T01:27:00.560Z,20.97
2019-04-27T01:27:54.604Z,19.63
2019-04-27T01:28:35.238Z,19.97
2019-04-27T01:29:14.786Z,20.17
2019-04-27T01:29:52.630Z,19.40
2019-04-27T01:30:34.012Z,19.37
2019-04-27T01:31:13.080Z,21.20
2019-04-27T01:31:50.154Z,19.80
2019-04-27T01:32:29.166Z,18.70
2019-04-27T01:33:06.638Z,19.83
2019-04-27T01:33:44.011Z,18.20
2019-04-27T01:34:22.615Z,19.60
2019-04-27T01:35:02.300Z,18.07
2019-04-27T01:35:41.140Z,17.90
2019-04-27T01:36:19.935Z,18.90
2019-04-27T01:36:59.506Z,17.23
2019-04-27T01:37:38.685Z,16.10
2019-04-27T01:38:16.365Z,15.73
2019-04-27T01:38:54.605Z,14.35
2019-04-27T01:39:32.258Z,14.15
2019-04-27T01:40:09.811Z,14.80
2019-04-27T01:40:46.706Z,13.93
2019-04-27T01:41:24.197Z,12.70
2019-04-27T01:42:02.201Z,13.95
2019-04-27T01:42:39.893Z,12.60
2019-04-27T01:43:18.675Z,10.77
2019-04-27T01:43:56.146Z,11.33
2019-04-27T01:44:33.929Z,10.50
2019-04-27T01:45:12.283Z,10.63
2019-04-27T01:45:50.841Z,10.70
2019-04-27T01:46:29.544Z,10.57
2019-04-27T01:47:08.353Z,9.63
2019-04-27T01:47:46.443Z,9.53
2019-04-27T01:48:25.871Z,10.57
2019-04-27T01:49:03.139Z,8.60
2019-04-27T01:49:41.015Z,8.33
2019-04-27T01:50:19.533Z,8.75
2019-04-27T01:50:56.634Z,7.90
2019-04-27T01:51:33.879Z,8.90
2019-04-27T01:52:11.057Z,8.33
2019-04-27T01:52:50.321Z,8.23
2019-04-27T01:53:28.609Z,8.43
2019-04-27T01:54:10.385Z,8.40
2019-04-27T01:54:49.561Z,8.68
2019-04-27T01:55:27.150Z,9.03
2019-04-27T01:56:04.629Z,9.20
2019-04-27T01:56:42.105Z,9.10
2019-04-27T01:57:19.989Z,9.17
2019-04-27T01:58:00.063Z,9.33
2019-04-27T01:58:36.593Z,9.13
2019-04-27T01:59:14.605Z,9.40
2019-04-27T01:59:52.601Z,8.17
2019-04-27T02:01:01.281Z,8.97
2019-04-27T02:01:58.796Z,9.33
2019-04-27T02:02:42.461Z,8.97
2019-04-27T02:03:22.729Z,8.73
2019-04-27T02:04:23.113Z,9.70
2019-04-27T02:05:31.310Z,9.20
2019-04-27T02:06:09.194Z,9.60
2019-04-27T02:06:48.695Z,10.63
2019-04-27T02:07:26.707Z,11.20
2019-04-27T02:08:04.705Z,11.00
2019-04-27T02:08:41.928Z,11.17
2019-04-27T02:09:21.301Z,10.47
2019-04-27T02:09:58.929Z,10.47
2019-04-27T02:10:36.153Z,10.90
2019-04-27T02:11:13.851Z,11.23
2019-04-27T02:11:51.219Z,10.80
2019-04-27T02:12:31.973Z,12.40
2019-04-27T02:13:09.108Z,12.27
2019-04-27T02:13:46.546Z,11.53
2019-04-27T02:14:24.301Z,10.80
2019-04-27T02:15:01.383Z,12.17
2019-04-27T02:15:40.874Z,12.70
2019-04-27T02:16:18.756Z,12.10
2019-04-27T02:16:56.640Z,11.53
2019-04-27T02:17:33.787Z,12.10
2019-04-27T02:18:11.250Z,11.87
2019-04-27T02:18:48.926Z,12.33
2019-04-27T02:19:26.266Z,12.00
2019-04-27T02:20:04.310Z,12.13
2019-04-27T02:20:44.302Z,12.53
2019-04-27T02:21:21.101Z,12.47
2019-04-27T02:22:00.842Z,12.83
2019-04-27T02:22:38.484Z,12.80
2019-04-27T02:23:16.070Z,12.23
2019-04-27T02:23:53.216Z,11.23
2019-04-27T02:24:31.146Z,12.45
2019-04-27T02:25:09.094Z,11.80
2019-04-27T02:25:46.781Z,12.77
2019-04-27T02:26:24.521Z,12.03
2019-04-27T02:27:02.470Z,12.97
2019-04-27T02:27:41.389Z,12.00
2019-04-27T02:28:29.321Z,12.90
2019-04-27T02:29:29.085Z,11.37
2019-04-27T02:30:25.776Z,11.83
2019-04-27T02:31:24.624Z,11.15
2019-04-27T02:32:10.711Z,11.20
2019-04-27T02:33:12.645Z,11.53
2019-04-27T02:33:53.468Z,11.60
2019-04-27T02:34:33.549Z,12.30
2019-04-27T02:35:15.831Z,11.33
2019-04-27T02:35:55.419Z,12.15
2019-04-27T02:36:33.162Z,11.63
2019-04-27T02:37:14.055Z,14.03
2019-04-27T02:37:51.619Z,12.53
2019-04-27T02:38:30.547Z,12.07
2019-04-27T02:39:10.018Z,12.98
2019-04-27T02:39:49.810Z,13.15
2019-04-27T02:40:55.138Z,13.45
2019-04-27T02:41:33.243Z,13.10
2019-04-27T02:42:11.159Z,12.35
2019-04-27T02:42:50.383Z,13.40
2019-04-27T02:43:56.553Z,13.43
2019-04-27T02:44:40.218Z,12.85
2019-04-27T02:45:19.919Z,12.90
2019-04-27T02:45:56.697Z,12.60
2019-04-27T02:46:34.496Z,13.60
2019-04-27T02:47:11.371Z,12.33
2019-04-27T02:47:51.781Z,13.28
2019-04-27T02:48:29.836Z,13.60
2019-04-27T02:49:09.738Z,12.93
2019-04-27T02:49:46.351Z,11.50
2019-04-27T02:50:23.865Z,12.60
2019-04-27T02:51:04.276Z,12.10
2019-04-27T02:51:54.353Z,12.35
2019-04-27T02:52:44.808Z,11.33
2019-04-27T02:53:41.368Z,11.55
2019-04-27T02:54:20.432Z,11.75
2019-04-27T02:54:59.333Z,11.50
2019-04-27T02:55:39.495Z,12.28
2019-04-27T02:56:16.208Z,12.27
2019-04-27T02:56:53.577Z,11.57
2019-04-27T02:57:30.688Z,12.60
2019-04-27T02:58:10.021Z,11.55
2019-04-27T02:58:49.587Z,11.30
2019-04-27T02:59:30.041Z,10.80
2019-04-27T03:00:10.491Z,10.75
2019-04-27T03:00:50.189Z,11.55
2019-04-27T03:01:32.207Z,10.80
2019-04-27T03:02:30.378Z,10.53
2019-04-27T03:03:10.162Z,9.70
2019-04-27T03:03:50.203Z,10.95
2019-04-27T03:04:30.365Z,10.50
2019-04-27T03:05:12.701Z,11.15
2019-04-27T03:05:55.933Z,11.12
2019-04-27T03:06:34.120Z,11.03
2019-04-27T03:07:11.728Z,9.70
2019-04-27T03:07:50.305Z,10.37
2019-04-27T03:08:29.453Z,9.70
2019-04-27T03:09:11.247Z,11.10
2019-04-27T03:09:47.618Z,11.67
2019-04-27T03:10:29.639Z,10.72
2019-04-27T03:11:06.916Z,11.43
2019-04-27T03:11:44.570Z,11.57
2019-04-27T03:12:24.591Z,10.90
2019-04-27T03:13:14.989Z,10.80
2019-04-27T03:14:28.018Z,11.12
2019-04-27T03:14:56.868Z,10.55
2019-04-27T03:15:42.129Z,11.57
2019-04-27T03:16:39.567Z,11.18
2019-04-27T03:17:39.342Z,11.53
2019-04-27T03:18:32.828Z,11.10
2019-04-27T03:19:29.854Z,11.68
2019-04-27T03:20:13.072Z,11.18
2019-04-27T03:20:54.397Z,12.13
2019-04-27T03:21:50.995Z,12.75
2019-04-27T03:22:41.049Z,11.90
2019-04-27T03:23:19.980Z,12.70
2019-04-27T03:24:00.060Z,13.28
2019-04-27T03:24:54.787Z,13.05
2019-04-27T03:25:53.771Z,12.60
2019-04-27T03:26:50.077Z,13.32
2019-04-27T03:27:30.337Z,13.03
2019-04-27T03:28:11.977Z,12.93
2019-04-27T03:28:50.263Z,13.43
2019-04-27T03:29:30.462Z,14.50
2019-04-27T03:30:12.239Z,13.40
2019-04-27T03:30:52.050Z,13.65
2019-04-27T03:31:32.698Z,13.28
2019-04-27T03:32:12.514Z,13.40
2019-04-27T03:32:54.880Z,12.75
2019-04-27T03:33:32.575Z,13.50
2019-04-27T03:34:11.996Z,13.90
2019-04-27T03:34:52.295Z,14.40
2019-04-27T03:35:35.052Z,14.23
2019-04-27T03:36:07.367Z,13.83
2019-04-27T03:36:45.390Z,13.48
2019-04-27T03:37:23.301Z,12.78
2019-04-27T03:38:00.787Z,13.20
2019-04-27T03:38:40.293Z,13.78
2019-04-27T03:39:19.865Z,14.20
2019-04-27T03:40:00.172Z,14.33
2019-04-27T03:40:36.063Z,14.50
2019-04-27T03:41:13.238Z,13.43
2019-04-27T03:41:52.969Z,12.85
2019-04-27T03:42:31.563Z,14.28
2019-04-27T03:43:16.833Z,14.50
2019-04-27T03:43:54.009Z,15.55
2019-04-27T03:44:32.152Z,13.70
2019-04-27T03:45:10.955Z,13.67
2019-04-27T03:45:49.731Z,14.67
2019-04-27T03:46:30.137Z,14.17
2019-04-27T03:47:06.629Z,14.20
2019-04-27T03:47:44.361Z,14.67
2019-04-27T03:48:22.394Z,15.55
2019-04-27T03:49:00.271Z,16.35
2019-04-27T03:49:41.598Z,15.78
2019-04-27T03:50:21.588Z,15.53
2019-04-27T03:51:20.265Z,15.87
2019-04-27T03:52:04.406Z,15.80
2019-04-27T03:52:51.206Z,15.77
2019-04-27T03:53:33.849Z,15.10
2019-04-27T03:54:30.426Z,14.95
2019-04-27T03:55:15.183Z,15.18
2019-04-27T03:55:55.063Z,16.50
2019-04-27T03:56:41.500Z,16.30
2019-04-27T03:57:26.347Z,15.23
2019-04-27T03:58:15.915Z,17.10
2019-04-27T03:59:01.752Z,17.55
2019-04-27T03:59:59.385Z,16.17
2019-04-27T04:00:36.904Z,16.70
2019-04-27T04:01:15.099Z,17.00
2019-04-27T04:01:52.695Z,16.25
2019-04-27T04:02:30.789Z,17.57
2019-04-27T04:03:10.523Z,16.42
2019-04-27T04:03:49.709Z,17.82
2019-04-27T04:04:26.499Z,18.80
2019-04-27T04:05:04.545Z,15.97
2019-04-27T04:05:42.138Z,17.75
2019-04-27T04:06:23.030Z,18.50
2019-04-27T04:07:14.833Z,17.37
2019-04-27T04:07:53.451Z,17.12
2019-04-27T04:08:33.287Z,18.77
2019-04-27T04:09:11.703Z,17.13
2019-04-27T04:09:50.307Z,17.00
2019-04-27T04:10:29.609Z,16.50
2019-04-27T04:11:14.670Z,18.87
2019-04-27T04:12:02.232Z,16.87
2019-04-27T04:12:56.451Z,17.25
2019-04-27T04:13:39.654Z,17.17
2019-04-27T04:14:20.242Z,17.27
2019-04-27T04:14:59.813Z,18.50
2019-04-27T04:15:56.071Z,17.90
2019-04-27T04:16:40.308Z,17.15
2019-04-27T04:17:20.371Z,18.33
2019-04-27T04:17:59.454Z,17.25
2019-04-27T04:18:54.875Z,17.83
2019-04-27T04:19:48.001Z,18.25
2019-04-27T04:20:14.543Z,19.65
2019-04-27T04:20:52.753Z,17.87
2019-04-27T04:21:30.602Z,18.15
2019-04-27T04:22:10.272Z,17.20
2019-04-27T04:22:51.341Z,17.27
2019-04-27T04:23:25.699Z,17.17
2019-04-27T04:24:03.824Z,17.77
2019-04-27T04:24:41.013Z,18.10
2019-04-27T04:25:21.006Z,20.00
2019-04-27T04:25:59.819Z,17.82
2019-04-27T04:26:39.899Z,17.87
2019-04-27T04:27:16.309Z,18.15
2019-04-27T04:27:54.007Z,17.30
2019-04-27T04:28:31.475Z,17.75
2019-04-27T04:29:10.368Z,19.67
2019-04-27T04:29:49.285Z,19.90
2019-04-27T04:30:26.932Z,19.40
2019-04-27T04:31:05.438Z,17.83
2019-04-27T04:31:43.758Z,17.45
2019-04-27T04:32:22.010Z,17.87
2019-04-27T04:33:00.058Z,18.48
2019-04-27T04:33:40.169Z,18.35
2019-04-27T04:34:19.573Z,17.48
2019-04-27T04:35:07.459Z,19.00
2019-04-27T04:35:45.046Z,18.17
2019-04-27T04:36:22.456Z,20.27
2019-04-27T04:37:00.696Z,17.97
2019-04-27T04:37:39.444Z,17.40
2019-04-27T04:38:20.321Z,18.40
2019-04-27T04:39:00.725Z,18.20
2019-04-27T04:39:40.341Z,19.47
2019-04-27T04:40:19.737Z,18.92
2019-04-27T04:41:03.306Z,18.00
2019-04-27T04:41:47.484Z,17.97
2019-04-27T04:42:34.754Z,17.60
2019-04-27T04:43:24.647Z,17.23
2019-04-27T04:44:12.139Z,18.12
2019-04-27T04:44:56.890Z,16.48
2019-04-27T04:45:45.014Z,17.20
2019-04-27T04:46:40.079Z,17.27
2019-04-27T04:47:41.759Z,15.93
2019-04-27T04:48:20.199Z,16.00
2019-04-27T04:49:00.041Z,16.60
2019-04-27T04:49:39.590Z,15.32
2019-04-27T04:50:16.113Z,15.90
2019-04-27T04:50:53.642Z,16.93
2019-04-27T04:51:31.519Z,14.90
2019-04-27T04:52:09.659Z,15.10
2019-04-27T04:52:47.003Z,16.20
2019-04-27T04:53:29.215Z,16.10
2019-04-27T04:54:04.437Z,17.15
2019-04-27T04:54:43.647Z,15.93
2019-04-27T04:55:20.778Z,16.02
2019-04-27T04:56:00.127Z,16.83
2019-04-27T04:56:39.260Z,16.30
2019-04-27T04:57:16.530Z,15.10
2019-04-27T04:57:54.106Z,16.62
2019-04-27T04:58:31.390Z,16.77
2019-04-27T04:59:10.078Z,16.57
2019-04-27T04:59:49.375Z,15.93
2019-04-27T05:00:30.115Z,17.03
2019-04-27T05:01:09.855Z,16.70
2019-04-27T05:01:49.723Z,18.13
2019-04-27T05:02:29.330Z,18.27
2019-04-27T05:03:09.178Z,16.13
2019-04-27T05:03:46.693Z,16.60
2019-04-27T05:04:26.202Z,17.27
2019-04-27T05:05:03.162Z,16.03
2019-04-27T05:05:41.365Z,13.47
2019-04-27T05:06:19.098Z,15.80
2019-04-27T05:06:59.127Z,15.03
2019-04-27T05:07:35.582Z,15.43
2019-04-27T05:08:13.120Z,13.70
2019-04-27T05:08:51.370Z,14.00
2019-04-27T05:09:29.556Z,15.53
2019-04-27T05:10:09.057Z,14.47
2019-04-27T05:10:46.456Z,13.90
2019-04-27T05:11:29.902Z,13.43
2019-04-27T05:12:09.662Z,12.50
2019-04-27T05:12:48.634Z,13.10
2019-04-27T05:13:30.145Z,13.37
2019-04-27T05:14:07.326Z,11.60
2019-04-27T05:14:44.195Z,12.00
2019-04-27T05:15:21.462Z,10.63
2019-04-27T05:15:59.072Z,10.87
2019-04-27T05:16:36.010Z,11.40
2019-04-27T05:17:13.486Z,11.60
2019-04-27T05:17:51.274Z,10.40
2019-04-27T05:18:29.296Z,10.20
2019-04-27T05:19:06.737Z,10.80
2019-04-27T05:19:44.752Z,10.63
2019-04-27T05:20:55.694Z,10.80
2019-04-27T05:21:34.853Z,9.53
2019-04-27T05:22:12.286Z,9.93
2019-04-27T05:22:49.456Z,10.03
2019-04-27T05:23:30.048Z,8.70
2019-04-27T05:24:09.208Z,9.70
2019-04-27T05:24:49.321Z,9.67
2019-04-27T05:25:30.126Z,8.80
2019-04-27T05:26:09.101Z,8.83
2019-04-27T05:26:46.427Z,9.68
2019-04-27T05:27:23.590Z,9.57
2019-04-27T05:28:00.711Z,9.13
2019-04-27T05:28:38.402Z,9.18
2019-04-27T05:29:18.936Z,9.17
2019-04-27T05:29:57.167Z,8.90
2019-04-27T05:30:34.370Z,8.23
2019-04-27T05:31:12.170Z,9.13
2019-04-27T05:31:51.222Z,9.23
2019-04-27T05:32:29.173Z,8.73
2019-04-27T05:33:25.874Z,8.60
2019-04-27T05:34:03.169Z,8.27
2019-04-27T05:34:40.378Z,9.13
2019-04-27T05:35:19.431Z,7.95
2019-04-27T05:35:56.842Z,8.63
2019-04-27T05:36:34.524Z,8.38
2019-04-27T05:37:12.104Z,9.27
2019-04-27T05:37:52.352Z,7.60
2019-04-27T05:38:29.810Z,8.27
2019-04-27T05:39:09.648Z,7.93
2019-04-27T05:39:49.601Z,7.23
2019-04-27T05:40:29.129Z,7.53
2019-04-27T05:41:06.119Z,8.00
2019-04-27T05:41:43.658Z,9.00
2019-04-27T05:42:21.686Z,7.17
2019-04-27T05:42:58.858Z,7.53
2019-04-27T05:43:45.026Z,7.23
2019-04-27T05:44:48.969Z,7.42
2019-04-27T05:46:01.490Z,7.37
2019-04-27T05:46:59.121Z,7.47
2019-04-27T05:47:48.514Z,6.80
2019-04-27T05:48:27.675Z,7.60
2019-04-27T05:49:06.295Z,7.75
2019-04-27T05:49:45.958Z,9.17
2019-04-27T05:50:35.475Z,7.80
2019-04-27T05:51:02.988Z,7.80
2019-04-27T05:51:41.971Z,8.10
2019-04-27T05:52:29.793Z,8.10
2019-04-27T05:53:08.671Z,7.90
2019-04-27T05:53:46.401Z,7.80
2019-04-27T05:54:24.033Z,8.40
2019-04-27T05:55:01.660Z,7.78
2019-04-27T05:55:39.329Z,8.40
2019-04-27T05:56:17.131Z,8.33
2019-04-27T05:56:56.958Z,6.33
2019-04-27T05:57:33.953Z,8.23
2019-04-27T05:58:11.718Z,7.95
2019-04-27T05:58:51.255Z,8.55
2019-04-27T05:59:29.814Z,9.63
2019-04-27T06:00:09.284Z,8.20
2019-04-27T06:00:49.558Z,9.10
2019-04-27T06:01:26.988Z,8.70
2019-04-27T06:02:04.512Z,8.40
2019-04-27T06:02:42.484Z,9.00
2019-04-27T06:03:21.005Z,8.87
2019-04-27T06:04:00.513Z,9.15
2019-04-27T06:04:39.057Z,8.33
2019-04-27T06:05:18.863Z,8.60
2019-04-27T06:05:55.794Z,8.80
2019-04-27T06:06:33.261Z,8.37
2019-04-27T06:07:10.055Z,9.03
2019-04-27T06:07:48.759Z,9.20
2019-04-27T06:08:26.676Z,9.53
2019-04-27T06:09:06.233Z,9.60
2019-04-27T06:09:43.730Z,9.30
2019-04-27T06:10:21.314Z,9.10
2019-04-27T06:10:59.255Z,9.37
2019-04-27T06:11:36.810Z,10.43
2019-04-27T06:12:14.576Z,9.45
2019-04-27T06:12:52.163Z,8.83
2019-04-27T06:13:30.996Z,10.50
2019-04-27T06:14:09.648Z,9.90
2019-04-27T06:14:49.301Z,10.30
2019-04-27T06:15:26.537Z,10.50
2019-04-27T06:16:06.458Z,10.70
2019-04-27T06:16:44.034Z,8.73
2019-04-27T06:17:21.678Z,10.10
2019-04-27T06:17:59.675Z,9.60
2019-04-27T06:18:41.260Z,9.57
2019-04-27T06:19:19.373Z,10.10
2019-04-27T06:19:56.628Z,9.20
2019-04-27T06:20:34.295Z,8.60
2019-04-27T06:21:13.409Z,9.33
2019-04-27T06:21:50.809Z,9.23
2019-04-27T06:22:28.981Z,10.20
2019-04-27T06:23:06.149Z,10.00
2019-04-27T06:23:43.858Z,9.23
2019-04-27T06:24:21.422Z,8.60
2019-04-27T06:25:00.198Z,9.10
2019-04-27T06:25:39.308Z,9.33
2019-04-27T06:26:20.030Z,9.10
2019-04-27T06:26:57.190Z,9.63
2019-04-27T06:27:34.643Z,8.15
2019-04-27T06:28:12.346Z,8.60
2019-04-27T06:28:50.495Z,8.53
2019-04-27T06:29:30.807Z,9.23
2019-04-27T06:30:09.766Z,9.17
2019-04-27T06:30:49.140Z,9.10
2019-04-27T06:31:26.622Z,7.93
2019-04-27T06:32:03.875Z,8.60
2019-04-27T06:32:42.529Z,8.57
2019-04-27T06:33:30.153Z,7.93
2019-04-27T06:34:05.716Z,8.00
2019-04-27T06:34:43.489Z,8.73
2019-04-27T06:35:24.430Z,8.67
2019-04-27T06:36:02.427Z,8.60
2019-04-27T06:36:43.429Z,8.93
2019-04-27T06:37:21.615Z,7.80
2019-04-27T06:37:58.985Z,8.30
2019-04-27T06:38:36.521Z,8.77
2019-04-27T06:39:13.690Z,8.37
2019-04-27T06:39:54.287Z,8.60
2019-04-27T06:40:31.604Z,9.03
2019-04-27T06:41:10.024Z,8.13
2019-04-27T06:41:49.086Z,7.90
2019-04-27T06:42:29.831Z,9.07
2019-04-27T06:43:08.610Z,8.27
2019-04-27T06:43:49.513Z,8.30
2019-04-27T06:44:29.761Z,7.97
2019-04-27T06:45:09.936Z,7.67
2019-04-27T06:45:48.670Z,7.87
2019-04-27T06:46:26.537Z,7.17
2019-04-27T06:47:04.556Z,6.90
2019-04-27T06:47:42.370Z,7.47
2019-04-27T06:48:21.857Z,7.40
2019-04-27T06:48:59.479Z,7.13
2019-04-27T06:49:37.177Z,6.53
2019-04-27T06:50:20.062Z,7.23
2019-04-27T06:51:03.637Z,6.60
2019-04-27T06:51:36.895Z,7.30
2019-04-27T06:52:14.444Z,7.27
2019-04-27T06:52:52.225Z,6.80
2019-04-27T06:53:29.637Z,6.57
2019-04-27T06:54:10.733Z,6.90
2019-04-27T06:54:48.657Z,6.37
2019-04-27T06:55:29.112Z,7.00
2019-04-27T06:56:06.704Z,6.90
2019-04-27T06:56:45.343Z,6.50
2019-04-27T06:57:22.820Z,6.60
2019-04-27T06:58:00.259Z,6.63
2019-04-27T06:58:40.768Z,7.20
2019-04-27T06:59:18.613Z,6.50
2019-04-27T06:59:56.181Z,6.90
2019-04-27T07:00:41.221Z,6.15
2019-04-27T07:01:20.512Z,6.20
2019-04-27T07:02:00.811Z,6.43
2019-04-27T07:02:39.218Z,6.47
2019-04-27T07:03:18.838Z,7.17
2019-04-27T07:03:56.173Z,5.40
2019-04-27T07:04:33.304Z,5.20
2019-04-27T07:05:12.213Z,6.07
2019-04-27T07:05:52.265Z,5.73
2019-04-27T07:06:32.072Z,5.67
2019-04-27T07:07:09.845Z,4.83
2019-04-27T07:07:48.979Z,4.70
2019-04-27T07:08:28.666Z,5.63
2019-04-27T07:09:09.613Z,5.30
2019-04-27T07:09:49.200Z,5.90
2019-04-27T07:10:26.349Z,5.33
2019-04-27T07:11:03.886Z,5.80
2019-04-27T07:11:41.710Z,5.30
2019-04-27T07:12:23.985Z,5.70
2019-04-27T07:13:01.657Z,5.23
2019-04-27T07:13:39.099Z,5.37
2019-04-27T07:14:16.657Z,4.80
2019-04-27T07:14:55.105Z,4.67
2019-04-27T07:15:32.414Z,5.13
2019-04-27T07:16:10.333Z,4.17
2019-04-27T07:16:48.835Z,4.43
2019-04-27T07:17:26.690Z,5.30
2019-04-27T07:18:04.440Z,4.37
2019-04-27T07:18:41.321Z,4.73
2019-04-27T07:19:19.060Z,4.37
2019-04-27T07:19:56.501Z,4.07
2019-04-27T07:20:35.622Z,4.80
2019-04-27T07:21:18.928Z,4.10
2019-04-27T07:21:53.347Z,5.20
2019-04-27T07:22:30.947Z,4.07
2019-04-27T07:23:09.500Z,4.13
2019-04-27T07:23:59.442Z,4.67
2019-04-27T07:24:38.771Z,4.43
2019-04-27T07:25:16.422Z,4.40
2019-04-27T07:25:54.087Z,4.03
2019-04-27T07:26:32.329Z,3.90
2019-04-27T07:27:10.057Z,4.00
2019-04-27T07:27:50.330Z,4.57
2019-04-27T07:28:28.654Z,4.13
2019-04-27T07:29:06.227Z,3.77
2019-04-27T07:29:44.837Z,3.93
2019-04-27T07:30:23.726Z,3.60
2019-04-27T07:31:01.096Z,4.53
2019-04-27T07:31:40.016Z,3.70
2019-04-27T07:32:19.298Z,4.37
2019-04-27T07:32:58.861Z,3.97
2019-04-27T07:33:35.814Z,3.87
2019-04-27T07:34:13.507Z,4.13
2019-04-27T07:34:51.266Z,4.17
2019-04-27T07:35:29.619Z,4.63
2019-04-27T07:36:08.510Z,3.73
2019-04-27T07:36:49.092Z,3.73
2019-04-27T07:37:27.165Z,3.80
2019-04-27T07:38:04.650Z,3.63
2019-04-27T07:38:42.112Z,4.07
2019-04-27T07:39:19.494Z,4.13
2019-04-27T07:39:59.054Z,4.50
2019-04-27T07:40:40.023Z,3.90
2019-04-27T07:41:19.473Z,3.60
2019-04-27T07:41:58.493Z,4.10
2019-04-27T07:42:35.504Z,3.80
2019-04-27T07:43:24.405Z,3.40
2019-04-27T07:44:10.501Z,3.87
2019-04-27T07:44:51.743Z,3.87
2019-04-27T07:45:34.531Z,3.30
2019-04-27T07:46:12.313Z,3.63
2019-04-27T07:47:09.728Z,4.10
2019-04-27T07:47:49.381Z,4.03
2019-04-27T07:48:26.559Z,3.90
2019-04-27T07:49:04.454Z,3.90
2019-04-27T07:49:43.761Z,3.60
2019-04-27T07:50:21.149Z,3.20
2019-04-27T07:50:59.833Z,3.50
2019-04-27T07:51:36.989Z,3.60
2019-04-27T07:52:14.364Z,3.30
2019-04-27T07:52:53.841Z,4.00
2019-04-27T07:53:35.643Z,3.70
2019-04-27T07:54:13.054Z,3.63
2019-04-27T07:54:50.548Z,3.50
2019-04-27T07:55:28.773Z,3.53
2019-04-27T07:56:06.441Z,3.97
2019-04-27T07:56:43.873Z,3.50
2019-04-27T07:57:21.491Z,3.57
2019-04-27T07:58:04.869Z,3.60
2019-04-27T07:58:39.615Z,3.47
2019-04-27T07:59:16.874Z,4.43
2019-04-27T07:59:54.327Z,3.60
2019-04-27T08:00:31.603Z,3.57
2019-04-27T08:01:09.275Z,3.70
2019-04-27T08:01:46.167Z,3.40
2019-04-27T08:02:24.050Z,3.50
2019-04-27T08:03:01.207Z,3.83
2019-04-27T08:03:40.976Z,3.30
2019-04-27T08:04:18.843Z,3.90
2019-04-27T08:04:56.103Z,3.60
2019-04-27T08:05:36.602Z,3.30
2019-04-27T08:06:13.602Z,3.10
2019-04-27T08:06:51.392Z,3.40
2019-04-27T08:07:29.444Z,3.90
2019-04-27T08:08:06.662Z,3.53
2019-04-27T08:08:44.291Z,3.70
2019-04-27T08:09:22.227Z,3.17
2019-04-27T08:10:01.688Z,3.30
2019-04-27T08:10:39.213Z,3.30
2019-04-27T08:11:19.138Z,3.40
2019-04-27T08:11:55.973Z,3.40
2019-04-27T08:12:33.577Z,3.57
2019-04-27T08:13:10.948Z,2.97
2019-04-27T08:13:49.774Z,3.10
2019-04-27T08:14:28.503Z,3.03
2019-04-27T08:15:06.271Z,3.43
2019-04-27T08:15:43.532Z,3.67
2019-04-27T08:16:23.713Z,4.07
2019-04-27T08:17:01.637Z,3.50
2019-04-27T08:17:42.419Z,3.57
2019-04-27T08:18:18.943Z,3.03
2019-04-27T08:18:59.810Z,3.50
2019-04-27T08:19:37.227Z,3.80
2019-04-27T08:20:14.894Z,3.13
2019-04-27T08:20:52.345Z,4.07
2019-04-27T08:21:42.882Z,3.60
2019-04-27T08:22:13.748Z,3.97
2019-04-27T08:22:53.766Z,3.20
2019-04-27T08:23:31.165Z,3.70
2019-04-27T08:24:09.573Z,4.57
2019-04-27T08:24:49.850Z,3.50
2019-04-27T08:25:28.736Z,4.00
2019-04-27T08:26:09.673Z,3.27
2019-04-27T08:27:01.134Z,4.13
2019-04-27T08:28:05.985Z,4.20
2019-04-27T08:28:58.636Z,3.77
2019-04-27T08:29:54.589Z,3.93
2019-04-27T08:30:40.407Z,3.80
2019-04-27T08:31:22.206Z,4.67
2019-04-27T08:32:04.888Z,4.10
2019-04-27T08:32:44.576Z,4.57
2019-04-27T08:33:21.713Z,4.20
2019-04-27T08:34:00.131Z,4.40
2019-04-27T08:34:39.712Z,4.23
2019-04-27T08:35:17.195Z,4.10
2019-04-27T08:35:54.617Z,4.23
2019-04-27T08:36:32.118Z,3.97
2019-04-27T08:37:09.437Z,4.23
2019-04-27T08:37:46.415Z,4.27
2019-04-27T08:38:23.574Z,5.00
2019-04-27T08:39:03.397Z,5.30
2019-04-27T08:39:41.441Z,4.70
2019-04-27T08:40:19.693Z,5.47
2019-04-27T08:40:59.783Z,5.33
2019-04-27T08:41:37.009Z,4.33
2019-04-27T08:42:14.808Z,4.73
2019-04-27T08:42:51.730Z,5.87
2019-04-27T08:43:29.359Z,5.30
2019-04-27T08:44:06.945Z,5.03
2019-04-27T08:44:49.633Z,4.70
2019-04-27T08:45:29.265Z,5.30
2019-04-27T08:46:08.790Z,4.63
2019-04-27T08:46:46.485Z,4.70
2019-04-27T08:47:24.250Z,4.90
2019-04-27T08:48:02.646Z,4.60
2019-04-27T08:48:41.305Z,5.93
2019-04-27T08:49:18.809Z,5.87
2019-04-27T08:49:56.538Z,5.43
2019-04-27T08:50:33.378Z,5.60
2019-04-27T08:51:11.211Z,5.60
2019-04-27T08:51:58.569Z,5.23
2019-04-27T08:52:28.927Z,6.03
2019-04-27T08:53:09.705Z,5.57